»·PEaware :: N123RF KSNA-KAVX

N123RF :: KSNA-KAVX

FLIGHT INFORMATION

Flight Status: Arrived
Operator: Privately registered:
United States
More flights under this callsign
Pilot: Jacek M. (26729)
Aircraft: BEECH AIRCRAFT BARON
(BE58)
More flights by this aircraft type
Origin: KSNA John Wayne-Orange Co
United States
Destination: KAVX Catalina
United States
More flights between these airports :: More routes between these airports
Route: SLI V21 SXC
File this flight plan on PilotEdge
Remarks: I-7 RATING
Altitude:
(Current/Filed)
4,000ft
Speed:
(Current/Filed)
160kts
Departed: 15-Dec-19 01:17 PM
Arrived: 15-Dec-19 01:41 PM
Distance/Time
Traveled:
1nm/0:24
Distance/Time
To Go:
Arrived

Flight Plot

Page will automatically refresh every two minutes.


Map Options




Map Legend


Flown Route
Filed Route
Departure Airport
Arrival Airport
Navaid (VOR, NDB)
Fix

Horizontal Profiles

Position Reports

Time Latitude Longitude Heading Altitude Ground
Speed
15-Dec-19 12:51 33.671999 -117.867804 37 59ft 0kts
15-Dec-19 12:52 33.671999 -117.867804 37 59ft 0kts
15-Dec-19 12:53 33.671999 -117.867804 37 59ft 0kts
15-Dec-19 12:54 33.671999 -117.867804 37 59ft 0kts
15-Dec-19 12:55 33.671999 -117.867804 37 59ft 0kts
15-Dec-19 12:56 33.671999 -117.867804 37 59ft 0kts
15-Dec-19 12:57 33.671999 -117.867804 37 59ft 0kts
15-Dec-19 12:58 33.671999 -117.867804 37 59ft 0kts
15-Dec-19 12:59 33.671999 -117.867804 37 59ft 0kts
15-Dec-19 13:00 33.671999 -117.867804 37 59ft 0kts
15-Dec-19 13:01 33.671999 -117.867804 37 59ft 0kts
15-Dec-19 13:02 33.671999 -117.867804 37 59ft 0kts
15-Dec-19 13:03 33.671999 -117.867804 37 59ft 0kts
15-Dec-19 13:04 33.671999 -117.867804 37 59ft 0kts
15-Dec-19 13:05 33.671999 -117.867804 37 59ft 0kts
15-Dec-19 13:06 33.671999 -117.867804 37 59ft 0kts
15-Dec-19 13:07 33.671999 -117.867804 37 59ft 0kts
15-Dec-19 13:08 33.671999 -117.867804 37 59ft 0kts
15-Dec-19 13:09 33.672563 -117.867717 30 59ft 4kts
15-Dec-19 13:10 33.673840 -117.867050 15 59ft 5kts
15-Dec-19 13:11 33.677425 -117.865009 23 59ft 21kts
15-Dec-19 13:12 33.679673 -117.863854 312 59ft 0kts
15-Dec-19 13:13 33.679679 -117.863862 312 59ft 0kts
15-Dec-19 13:14 33.679688 -117.863873 311 59ft 0kts
15-Dec-19 13:15 33.679688 -117.863874 311 59ft 0kts
15-Dec-19 13:16 33.678138 -117.865460 214 59ft 58kts
15-Dec-19 13:17 33.651702 -117.884433 222 951ft 132kts
15-Dec-19 13:18 33.620658 -117.913151 223 2175ft 144kts
15-Dec-19 13:19 33.589725 -117.941845 222 3551ft 137kts
15-Dec-19 13:20 33.555906 -117.973549 223 4054ft 186kts
15-Dec-19 13:21 33.514238 -118.014031 222 4000ft 191kts
15-Dec-19 13:22 33.473020 -118.054044 222 3999ft 190kts
15-Dec-19 13:23 33.442626 -118.098943 252 4002ft 167kts
15-Dec-19 13:24 33.436531 -118.151842 276 4001ft 162kts
15-Dec-19 13:25 33.433680 -118.205631 251 4007ft 168kts
15-Dec-19 13:26 33.417882 -118.258654 257 4001ft 168kts
15-Dec-19 13:27 33.401921 -118.311561 253 4000ft 169kts
15-Dec-19 13:28 33.388928 -118.365708 254 4000ft 169kts
15-Dec-19 13:29 33.375169 -118.419463 254 4000ft 169kts
15-Dec-19 13:31 33.389942 -118.457326 0 4020ft 170kts
15-Dec-19 13:32 33.429549 -118.423743 51 3992ft 198kts
15-Dec-19 13:33 33.472582 -118.406291 354 4004ft 173kts
15-Dec-19 13:34 33.512063 -118.434379 319 4001ft 167kts
15-Dec-19 13:35 33.552166 -118.450201 38 4007ft 179kts
15-Dec-19 13:36 33.537220 -118.398953 139 3639ft 190kts
15-Dec-19 13:37 33.495032 -118.397422 208 3403ft 153kts
15-Dec-19 13:38 33.453654 -118.408831 189 3265ft 156kts
15-Dec-19 13:39 33.412808 -118.409335 135 2749ft 119kts
15-Dec-19 13:40 33.406792 -118.412482 252 1679ft 91kts
15-Dec-19 13:41 33.403809 -118.417096 128 1605ft 0kts
15-Dec-19 13:42 33.403396 -118.416226 116 1605ft 7kts
15-Dec-19 13:43 33.403308 -118.415297 145 1605ft 0kts
15-Dec-19 13:44 33.403308 -118.415297 145 1605ft 0kts
15-Dec-19 13:45 33.403308 -118.415297 145 1605ft 0kts
15-Dec-19 13:46 33.403308 -118.415297 145 1605ft 0kts
15-Dec-19 13:47 33.666778 -117.872286 37 56ft 0kts
15-Dec-19 13:48 33.666778 -117.872286 37 56ft 0kts
15-Dec-19 13:49 33.666778 -117.872286 37 56ft 0kts
15-Dec-19 13:49 33.666778 -117.872286 37 56ft 0kts
15-Dec-19 13:51 33.666778 -117.872286 37 56ft 0kts
15-Dec-19 13:52 33.666778 -117.872286 37 56ft 0kts
15-Dec-19 13:52 33.666778 -117.872286 37 56ft 0kts
15-Dec-19 13:53 33.666778 -117.872286 37 56ft 0kts
15-Dec-19 13:55 33.666778 -117.872286 37 56ft 0kts

Navigation Log

Ident Type
Flight plan parsing failed, navigation log unavailable